sensor_id;sensor_type;location;lat;lon;timestamp;temperature;humidity
47576;DHT22;33304;52.456;13.328;2023-04-25T00:00:03;9.10;27.80
47576;DHT22;33304;52.456;13.328;2023-04-25T00:02:38;9.10;27.20
47576;DHT22;33304;52.456;13.328;2023-04-25T00:05:05;9.00;28.10
47576;DHT22;33304;52.456;13.328;2023-04-25T00:07:34;9.10;27.10
47576;DHT22;33304;52.456;13.328;2023-04-25T00:10:01;9.10;27.10
47576;DHT22;33304;52.456;13.328;2023-04-25T00:12:29;9.00;26.80
47576;DHT22;33304;52.456;13.328;2023-04-25T00:14:57;9.00;26.80
47576;DHT22;33304;52.456;13.328;2023-04-25T00:17:25;9.00;26.80
47576;DHT22;33304;52.456;13.328;2023-04-25T00:19:53;9.10;26.70
47576;DHT22;33304;52.456;13.328;2023-04-25T00:22:21;9.00;26.80
47576;DHT22;33304;52.456;13.328;2023-04-25T00:24:48;9.10;26.80
47576;DHT22;33304;52.456;13.328;2023-04-25T00:27:15;9.10;26.90
47576;DHT22;33304;52.456;13.328;2023-04-25T00:29:42;9.10;26.80
47576;DHT22;33304;52.456;13.328;2023-04-25T00:32:10;9.10;27.20
47576;DHT22;33304;52.456;13.328;2023-04-25T00:34:38;9.10;26.80
47576;DHT22;33304;52.456;13.328;2023-04-25T00:37:05;9.20;26.70
47576;DHT22;33304;52.456;13.328;2023-04-25T00:39:32;9.10;26.50
47576;DHT22;33304;52.456;13.328;2023-04-25T00:42:00;9.10;26.60
47576;DHT22;33304;52.456;13.328;2023-04-25T00:44:29;9.10;26.80
47576;DHT22;33304;52.456;13.328;2023-04-25T00:46:56;9.10;26.80
47576;DHT22;33304;52.456;13.328;2023-04-25T00:49:25;9.10;26.80
47576;DHT22;33304;52.456;13.328;2023-04-25T00:51:53;9.20;26.90
47576;DHT22;33304;52.456;13.328;2023-04-25T00:54:20;9.10;26.80
47576;DHT22;33304;52.456;13.328;2023-04-25T00:56:47;9.20;26.90
47576;DHT22;33304;52.456;13.328;2023-04-25T00:59:15;9.20;26.90
47576;DHT22;33304;52.456;13.328;2023-04-25T01:01:43;9.20;26.90
47576;DHT22;33304;52.456;13.328;2023-04-25T01:04:10;9.10;26.80
47576;DHT22;33304;52.456;13.328;2023-04-25T01:06:38;9.20;26.90
47576;DHT22;33304;52.456;13.328;2023-04-25T01:09:07;9.20;26.90
47576;DHT22;33304;52.456;13.328;2023-04-25T01:11:34;9.20;26.90
47576;DHT22;33304;52.456;13.328;2023-04-25T01:14:01;9.20;26.90
47576;DHT22;33304;52.456;13.328;2023-04-25T01:16:29;9.20;27.20
47576;DHT22;33304;52.456;13.328;2023-04-25T01:18:56;9.10;27.00
47576;DHT22;33304;52.456;13.328;2023-04-25T01:21:25;9.10;26.80
47576;DHT22;33304;52.456;13.328;2023-04-25T01:23:55;9.10;26.90
47576;DHT22;33304;52.456;13.328;2023-04-25T01:26:23;9.10;26.80
47576;DHT22;33304;52.456;13.328;2023-04-25T01:28:51;9.10;26.80
47576;DHT22;33304;52.456;13.328;2023-04-25T01:31:19;9.10;26.80
47576;DHT22;33304;52.456;13.328;2023-04-25T01:33:47;9.00;27.00
47576;DHT22;33304;52.456;13.328;2023-04-25T01:36:14;9.00;27.10
47576;DHT22;33304;52.456;13.328;2023-04-25T01:38:43;9.00;26.80
47576;DHT22;33304;52.456;13.328;2023-04-25T01:41:12;9.10;26.90
47576;DHT22;33304;52.456;13.328;2023-04-25T01:43:40;9.10;26.80
47576;DHT22;33304;52.456;13.328;2023-04-25T01:46:07;9.10;27.40
47576;DHT22;33304;52.456;13.328;2023-04-25T01:48:34;9.20;26.90
47576;DHT22;33304;52.456;13.328;2023-04-25T01:51:01;9.00;26.80
47576;DHT22;33304;52.456;13.328;2023-04-25T01:53:29;9.10;26.90
47576;DHT22;33304;52.456;13.328;2023-04-25T01:55:58;9.00;27.30
47576;DHT22;33304;52.456;13.328;2023-04-25T01:58:30;9.10;26.80
47576;DHT22;33304;52.456;13.328;2023-04-25T02:01:06;9.10;26.80
47576;DHT22;33304;52.456;13.328;2023-04-25T02:03:40;9.00;26.90
47576;DHT22;33304;52.456;13.328;2023-04-25T02:06:14;9.10;27.00
47576;DHT22;33304;52.456;13.328;2023-04-25T02:08:43;9.00;26.80
47576;DHT22;33304;52.456;13.328;2023-04-25T02:11:13;9.00;26.80
47576;DHT22;33304;52.456;13.328;2023-04-25T02:13:47;9.10;26.60
47576;DHT22;33304;52.456;13.328;2023-04-25T02:16:34;9.00;26.80
47576;DHT22;33304;52.456;13.328;2023-04-25T02:19:02;9.00;26.80
47576;DHT22;33304;52.456;13.328;2023-04-25T02:21:30;9.00;27.00
47576;DHT22;33304;52.456;13.328;2023-04-25T02:23:58;9.00;26.80
47576;DHT22;33304;52.456;13.328;2023-04-25T02:26:29;9.00;26.80
47576;DHT22;33304;52.456;13.328;2023-04-25T02:28:57;9.00;26.80
47576;DHT22;33304;52.456;13.328;2023-04-25T02:31:24;9.00;26.80
47576;DHT22;33304;52.456;13.328;2023-04-25T02:33:51;9.00;26.80
47576;DHT22;33304;52.456;13.328;2023-04-25T02:36:19;8.90;27.10
47576;DHT22;33304;52.456;13.328;2023-04-25T02:38:48;9.00;27.00
47576;DHT22;33304;52.456;13.328;2023-04-25T02:41:16;9.00;26.80
47576;DHT22;33304;52.456;13.328;2023-04-25T02:43:44;8.90;27.20
47576;DHT22;33304;52.456;13.328;2023-04-25T02:46:11;8.90;27.20
47576;DHT22;33304;52.456;13.328;2023-04-25T02:48:39;8.80;27.50
47576;DHT22;33304;52.456;13.328;2023-04-25T02:51:06;8.90;27.80
47576;DHT22;33304;52.456;13.328;2023-04-25T02:53:33;8.90;27.60
47576;DHT22;33304;52.456;13.328;2023-04-25T02:56:00;8.90;27.80
47576;DHT22;33304;52.456;13.328;2023-04-25T02:58:28;8.90;27.80
47576;DHT22;33304;52.456;13.328;2023-04-25T03:00:56;8.90;27.20
47576;DHT22;33304;52.456;13.328;2023-04-25T03:03:23;8.90;27.30
47576;DHT22;33304;52.456;13.328;2023-04-25T03:05:52;8.80;27.50
47576;DHT22;33304;52.456;13.328;2023-04-25T03:08:24;8.80;27.60
47576;DHT22;33304;52.456;13.328;2023-04-25T03:10:53;8.90;27.40
47576;DHT22;33304;52.456;13.328;2023-04-25T03:13:21;8.90;28.10
47576;DHT22;33304;52.456;13.328;2023-04-25T03:15:48;8.90;27.60
47576;DHT22;33304;52.456;13.328;2023-04-25T03:18:17;8.80;27.50
47576;DHT22;33304;52.456;13.328;2023-04-25T03:20:44;8.70;27.70
47576;DHT22;33304;52.456;13.328;2023-04-25T03:23:12;8.70;28.00
47576;DHT22;33304;52.456;13.328;2023-04-25T03:25:41;8.80;28.10
47576;DHT22;33304;52.456;13.328;2023-04-25T03:28:09;8.90;28.00
47576;DHT22;33304;52.456;13.328;2023-04-25T03:30:36;8.80;28.00
47576;DHT22;33304;52.456;13.328;2023-04-25T03:33:03;8.80;27.90
47576;DHT22;33304;52.456;13.328;2023-04-25T03:35:32;8.80;28.10
47576;DHT22;33304;52.456;13.328;2023-04-25T03:37:59;8.80;27.90
47576;DHT22;33304;52.456;13.328;2023-04-25T03:40:30;8.80;27.90
47576;DHT22;33304;52.456;13.328;2023-04-25T03:43:13;8.80;27.70
47576;DHT22;33304;52.456;13.328;2023-04-25T03:45:46;8.90;27.90
47576;DHT22;33304;52.456;13.328;2023-04-25T03:48:14;8.90;27.80
47576;DHT22;33304;52.456;13.328;2023-04-25T03:50:42;8.80;28.30
47576;DHT22;33304;52.456;13.328;2023-04-25T03:53:09;8.70;28.50
47576;DHT22;33304;52.456;13.328;2023-04-25T03:55:57;8.70;28.50
47576;DHT22;33304;52.456;13.328;2023-04-25T03:58:24;8.80;28.50
47576;DHT22;33304;52.456;13.328;2023-04-25T04:00:51;8.90;28.60
47576;DHT22;33304;52.456;13.328;2023-04-25T04:03:18;8.80;28.30
47576;DHT22;33304;52.456;13.328;2023-04-25T04:05:47;8.70;28.50
47576;DHT22;33304;52.456;13.328;2023-04-25T04:08:14;8.70;28.80
47576;DHT22;33304;52.456;13.328;2023-04-25T04:10:41;8.80;28.60
47576;DHT22;33304;52.456;13.328;2023-04-25T04:13:09;8.80;28.70
47576;DHT22;33304;52.456;13.328;2023-04-25T04:15:36;8.80;29.20
47576;DHT22;33304;52.456;13.328;2023-04-25T04:18:03;8.70;28.90
47576;DHT22;33304;52.456;13.328;2023-04-25T04:20:32;8.80;29.10
47576;DHT22;33304;52.456;13.328;2023-04-25T04:23:00;8.80;29.70
47576;DHT22;33304;52.456;13.328;2023-04-25T04:25:28;8.80;29.50
47576;DHT22;33304;52.456;13.328;2023-04-25T04:28:06;8.80;29.00
47576;DHT22;33304;52.456;13.328;2023-04-25T04:30:40;8.90;28.90
47576;DHT22;33304;52.456;13.328;2023-04-25T04:33:08;8.90;29.30
47576;DHT22;33304;52.456;13.328;2023-04-25T04:35:36;8.90;28.90
47576;DHT22;33304;52.456;13.328;2023-04-25T04:38:05;8.80;28.90
47576;DHT22;33304;52.456;13.328;2023-04-25T04:40:34;8.80;29.00
47576;DHT22;33304;52.456;13.328;2023-04-25T04:43:12;8.80;29.60
47576;DHT22;33304;52.456;13.328;2023-04-25T04:46:01;8.90;29.10
47576;DHT22;33304;52.456;13.328;2023-04-25T04:48:49;9.00;29.00
47576;DHT22;33304;52.456;13.328;2023-04-25T04:51:35;9.00;29.30
47576;DHT22;33304;52.456;13.328;2023-04-25T04:54:11;8.90;28.70
47576;DHT22;33304;52.456;13.328;2023-04-25T04:56:53;8.90;29.40
47576;DHT22;33304;52.456;13.328;2023-04-25T04:59:36;8.90;29.30
47576;DHT22;33304;52.456;13.328;2023-04-25T05:02:26;9.00;29.20
47576;DHT22;33304;52.456;13.328;2023-04-25T05:05:07;9.10;28.80
47576;DHT22;33304;52.456;13.328;2023-04-25T05:07:51;9.10;28.80
47576;DHT22;33304;52.456;13.328;2023-04-25T05:10:27;9.10;29.00
47576;DHT22;33304;52.456;13.328;2023-04-25T05:13:03;9.20;28.70
47576;DHT22;33304;52.456;13.328;2023-04-25T05:15:44;9.00;28.60
47576;DHT22;33304;52.456;13.328;2023-04-25T05:18:38;9.00;28.70
47576;DHT22;33304;52.456;13.328;2023-04-25T05:21:22;9.10;28.80
47576;DHT22;33304;52.456;13.328;2023-04-25T05:24:10;9.00;29.40
47576;DHT22;33304;52.456;13.328;2023-04-25T05:27:07;8.90;29.20
47576;DHT22;33304;52.456;13.328;2023-04-25T05:29:44;8.90;29.40
47576;DHT22;33304;52.456;13.328;2023-04-25T05:32:22;8.90;29.20
47576;DHT22;33304;52.456;13.328;2023-04-25T05:34:51;8.80;29.70
47576;DHT22;33304;52.456;13.328;2023-04-25T05:37:27;8.90;29.90
47576;DHT22;33304;52.456;13.328;2023-04-25T05:40:04;8.90;30.00
47576;DHT22;33304;52.456;13.328;2023-04-25T05:42:45;9.00;29.80
47576;DHT22;33304;52.456;13.328;2023-04-25T05:45:41;9.10;29.50
47576;DHT22;33304;52.456;13.328;2023-04-25T05:48:27;9.00;29.60
47576;DHT22;33304;52.456;13.328;2023-04-25T05:51:17;9.00;30.00
47576;DHT22;33304;52.456;13.328;2023-04-25T05:53:59;9.10;29.60
47576;DHT22;33304;52.456;13.328;2023-04-25T05:56:26;9.20;29.50
47576;DHT22;33304;52.456;13.328;2023-04-25T05:58:56;9.10;29.30
47576;DHT22;33304;52.456;13.328;2023-04-25T06:01:23;9.30;29.60
47576;DHT22;33304;52.456;13.328;2023-04-25T06:03:50;9.20;30.00
47576;DHT22;33304;52.456;13.328;2023-04-25T06:06:18;9.10;29.50
47576;DHT22;33304;52.456;13.328;2023-04-25T06:08:46;9.10;30.20
47576;DHT22;33304;52.456;13.328;2023-04-25T06:11:13;9.20;30.30
47576;DHT22;33304;52.456;13.328;2023-04-25T06:13:40;9.30;30.00
47576;DHT22;33304;52.456;13.328;2023-04-25T06:16:09;9.20;29.70
47576;DHT22;33304;52.456;13.328;2023-04-25T06:18:36;9.30;30.00
47576;DHT22;33304;52.456;13.328;2023-04-25T06:21:04;9.30;29.70
47576;DHT22;33304;52.456;13.328;2023-04-25T06:23:32;9.40;30.00
47576;DHT22;33304;52.456;13.328;2023-04-25T06:26:06;9.20;29.50
47576;DHT22;33304;52.456;13.328;2023-04-25T06:28:36;9.20;30.30
47576;DHT22;33304;52.456;13.328;2023-04-25T06:31:04;9.20;29.80
47576;DHT22;33304;52.456;13.328;2023-04-25T06:33:33;9.10;30.50
47576;DHT22;33304;52.456;13.328;2023-04-25T06:36:00;9.20;30.00
47576;DHT22;33304;52.456;13.328;2023-04-25T06:38:28;9.20;31.20
47576;DHT22;33304;52.456;13.328;2023-04-25T06:40:57;9.30;31.00
47576;DHT22;33304;52.456;13.328;2023-04-25T06:43:25;9.20;30.50
47576;DHT22;33304;52.456;13.328;2023-04-25T06:46:04;9.20;31.30
47576;DHT22;33304;52.456;13.328;2023-04-25T06:48:36;9.40;30.30
47576;DHT22;33304;52.456;13.328;2023-04-25T06:51:05;9.50;30.00
47576;DHT22;33304;52.456;13.328;2023-04-25T06:53:33;9.60;29.90
47576;DHT22;33304;52.456;13.328;2023-04-25T06:56:03;9.50;29.60
47576;DHT22;33304;52.456;13.328;2023-04-25T06:58:44;9.40;29.50
47576;DHT22;33304;52.456;13.328;2023-04-25T07:01:15;9.10;30.60
47576;DHT22;33304;52.456;13.328;2023-04-25T07:03:43;9.10;31.70
47576;DHT22;33304;52.456;13.328;2023-04-25T07:06:16;9.20;31.90
47576;DHT22;33304;52.456;13.328;2023-04-25T07:08:43;9.30;31.90
47576;DHT22;33304;52.456;13.328;2023-04-25T07:11:10;9.20;31.90
47576;DHT22;33304;52.456;13.328;2023-04-25T07:13:37;9.10;31.80
47576;DHT22;33304;52.456;13.328;2023-04-25T07:16:05;9.00;31.70
47576;DHT22;33304;52.456;13.328;2023-04-25T07:18:34;9.20;31.80
47576;DHT22;33304;52.456;13.328;2023-04-25T07:21:03;9.20;32.30
47576;DHT22;33304;52.456;13.328;2023-04-25T07:23:32;9.10;31.80
47576;DHT22;33304;52.456;13.328;2023-04-25T07:26:03;9.10;31.70
47576;DHT22;33304;52.456;13.328;2023-04-25T07:28:30;9.10;33.50
47576;DHT22;33304;52.456;13.328;2023-04-25T07:30:57;9.00;34.20
47576;DHT22;33304;52.456;13.328;2023-04-25T07:33:24;8.80;34.70
47576;DHT22;33304;52.456;13.328;2023-04-25T07:35:52;8.80;35.70
47576;DHT22;33304;52.456;13.328;2023-04-25T07:38:21;9.00;35.00
47576;DHT22;33304;52.456;13.328;2023-04-25T07:40:49;9.30;35.60
47576;DHT22;33304;52.456;13.328;2023-04-25T07:43:16;9.40;32.00
47576;DHT22;33304;52.456;13.328;2023-04-25T07:45:51;9.30;31.90
47576;DHT22;33304;52.456;13.328;2023-04-25T07:48:19;9.10;31.80
47576;DHT22;33304;52.456;13.328;2023-04-25T07:50:47;9.20;31.80
47576;DHT22;33304;52.456;13.328;2023-04-25T07:53:15;9.10;31.00
47576;DHT22;33304;52.456;13.328;2023-04-25T07:55:51;9.20;31.80
47576;DHT22;33304;52.456;13.328;2023-04-25T07:58:20;9.10;30.70
47576;DHT22;33304;52.456;13.328;2023-04-25T08:00:50;9.00;31.10
47576;DHT22;33304;52.456;13.328;2023-04-25T08:03:29;9.00;30.10
47576;DHT22;33304;52.456;13.328;2023-04-25T08:05:57;9.00;30.70
47576;DHT22;33304;52.456;13.328;2023-04-25T08:08:27;9.10;30.20
47576;DHT22;33304;52.456;13.328;2023-04-25T08:10:55;9.30;29.70
47576;DHT22;33304;52.456;13.328;2023-04-25T08:13:22;9.30;28.50
47576;DHT22;33304;52.456;13.328;2023-04-25T08:15:50;9.30;28.60
47576;DHT22;33304;52.456;13.328;2023-04-25T08:18:21;9.10;28.70
47576;DHT22;33304;52.456;13.328;2023-04-25T08:21:03;9.20;29.30
47576;DHT22;33304;52.456;13.328;2023-04-25T08:23:30;9.40;28.00
47576;DHT22;33304;52.456;13.328;2023-04-25T08:26:12;9.30;27.00
47576;DHT22;33304;52.456;13.328;2023-04-25T08:28:41;9.30;25.80
47576;DHT22;33304;52.456;13.328;2023-04-25T08:31:08;9.50;25.50
47576;DHT22;33304;52.456;13.328;2023-04-25T08:33:48;9.50;24.70
47576;DHT22;33304;52.456;13.328;2023-04-25T08:36:25;9.90;23.40
47576;DHT22;33304;52.456;13.328;2023-04-25T08:38:54;9.90;22.70
47576;DHT22;33304;52.456;13.328;2023-04-25T08:41:23;9.80;22.60
47576;DHT22;33304;52.456;13.328;2023-04-25T08:43:51;10.00;22.00
47576;DHT22;33304;52.456;13.328;2023-04-25T08:46:19;10.10;18.60
47576;DHT22;33304;52.456;13.328;2023-04-25T08:49:01;10.10;17.60
47576;DHT22;33304;52.456;13.328;2023-04-25T08:51:31;10.00;16.40
47576;DHT22;33304;52.456;13.328;2023-04-25T08:54:09;9.90;16.10
47576;DHT22;33304;52.456;13.328;2023-04-25T08:56:41;9.90;15.80
47576;DHT22;33304;52.456;13.328;2023-04-25T08:59:08;10.10;13.70
47576;DHT22;33304;52.456;13.328;2023-04-25T09:01:37;10.20;12.50
47576;DHT22;33304;52.456;13.328;2023-04-25T09:04:04;10.30;12.50
47576;DHT22;33304;52.456;13.328;2023-04-25T09:06:33;10.50;11.10
47576;DHT22;33304;52.456;13.328;2023-04-25T09:09:03;10.50;10.80
47576;DHT22;33304;52.456;13.328;2023-04-25T09:11:31;10.60;10.90
47576;DHT22;33304;52.456;13.328;2023-04-25T09:14:13;10.80;10.40
47576;DHT22;33304;52.456;13.328;2023-04-25T09:17:00;11.20;9.30
47576;DHT22;33304;52.456;13.328;2023-04-25T09:19:39;11.40;9.10
47576;DHT22;33304;52.456;13.328;2023-04-25T09:22:14;11.50;7.70
47576;DHT22;33304;52.456;13.328;2023-04-25T09:24:43;11.60;8.50
47576;DHT22;33304;52.456;13.328;2023-04-25T09:27:13;11.60;8.50
47576;DHT22;33304;52.456;13.328;2023-04-25T09:29:46;11.60;8.00
47576;DHT22;33304;52.456;13.328;2023-04-25T09:32:17;12.00;7.70
47576;DHT22;33304;52.456;13.328;2023-04-25T09:34:47;12.20;8.90
47576;DHT22;33304;52.456;13.328;2023-04-25T09:37:18;12.00;7.70
47576;DHT22;33304;52.456;13.328;2023-04-25T09:40:06;12.30;7.10
47576;DHT22;33304;52.456;13.328;2023-04-25T09:42:42;12.60;8.50
47576;DHT22;33304;52.456;13.328;2023-04-25T09:45:12;12.00;7.70
47576;DHT22;33304;52.456;13.328;2023-04-25T09:47:41;12.00;7.50
47576;DHT22;33304;52.456;13.328;2023-04-25T09:50:14;12.10;7.40
47576;DHT22;33304;52.456;13.328;2023-04-25T09:52:44;11.90;6.30
47576;DHT22;33304;52.456;13.328;2023-04-25T09:55:22;11.60;6.00
47576;DHT22;33304;52.456;13.328;2023-04-25T09:57:50;11.50;7.00
47576;DHT22;33304;52.456;13.328;2023-04-25T10:00:21;11.40;7.20
47576;DHT22;33304;52.456;13.328;2023-04-25T10:02:48;11.50;6.60
47576;DHT22;33304;52.456;13.328;2023-04-25T10:05:43;11.60;6.80
47576;DHT22;33304;52.456;13.328;2023-04-25T10:08:12;11.30;6.00
47576;DHT22;33304;52.456;13.328;2023-04-25T10:10:40;11.40;5.20
47576;DHT22;33304;52.456;13.328;2023-04-25T10:13:07;11.30;5.30
47576;DHT22;33304;52.456;13.328;2023-04-25T10:15:36;11.50;5.80
47576;DHT22;33304;52.456;13.328;2023-04-25T10:18:05;11.60;4.30
47576;DHT22;33304;52.456;13.328;2023-04-25T10:20:33;11.40;4.20
47576;DHT22;33304;52.456;13.328;2023-04-25T10:23:06;11.60;4.20
47576;DHT22;33304;52.456;13.328;2023-04-25T10:25:35;11.50;4.40
47576;DHT22;33304;52.456;13.328;2023-04-25T10:28:03;11.50;3.50
47576;DHT22;33304;52.456;13.328;2023-04-25T10:30:31;11.60;5.60
47576;DHT22;33304;52.456;13.328;2023-04-25T10:32:59;11.80;4.00
47576;DHT22;33304;52.456;13.328;2023-04-25T10:35:28;11.90;3.60
47576;DHT22;33304;52.456;13.328;2023-04-25T10:38:06;12.20;3.90
47576;DHT22;33304;52.456;13.328;2023-04-25T10:40:35;12.00;3.70
47576;DHT22;33304;52.456;13.328;2023-04-25T10:46:16;11.50;3.50
47576;DHT22;33304;52.456;13.328;2023-04-25T10:48:47;11.20;4.20
47576;DHT22;33304;52.456;13.328;2023-04-25T10:51:22;11.10;5.00
47576;DHT22;33304;52.456;13.328;2023-04-25T10:53:57;11.10;5.70
47576;DHT22;33304;52.456;13.328;2023-04-25T10:56:26;11.30;4.80
47576;DHT22;33304;52.456;13.328;2023-04-25T10:59:04;11.50;6.30
47576;DHT22;33304;52.456;13.328;2023-04-25T11:01:36;11.30;3.90
47576;DHT22;33304;52.456;13.328;2023-04-25T11:04:05;11.50;5.10
47576;DHT22;33304;52.456;13.328;2023-04-25T11:06:41;11.60;3.80
47576;DHT22;33304;52.456;13.328;2023-04-25T11:09:13;11.50;3.40
47576;DHT22;33304;52.456;13.328;2023-04-25T11:11:41;11.40;3.30
47576;DHT22;33304;52.456;13.328;2023-04-25T11:14:08;11.40;3.40
47576;DHT22;33304;52.456;13.328;2023-04-25T11:16:35;11.10;3.80
47576;DHT22;33304;52.456;13.328;2023-04-25T11:19:04;10.90;3.60
47576;DHT22;33304;52.456;13.328;2023-04-25T11:21:31;10.60;4.20
47576;DHT22;33304;52.456;13.328;2023-04-25T11:23:59;10.60;5.30
47576;DHT22;33304;52.456;13.328;2023-04-25T11:26:27;10.40;4.90
47576;DHT22;33304;52.456;13.328;2023-04-25T11:28:57;10.30;6.30
47576;DHT22;33304;52.456;13.328;2023-04-25T11:31:25;10.50;6.10
47576;DHT22;33304;52.456;13.328;2023-04-25T11:34:12;10.40;5.20
47576;DHT22;33304;52.456;13.328;2023-04-25T11:37:09;10.30;3.10
47576;DHT22;33304;52.456;13.328;2023-04-25T11:39:37;10.20;3.80
47576;DHT22;33304;52.456;13.328;2023-04-25T11:42:05;10.20;3.20
47576;DHT22;33304;52.456;13.328;2023-04-25T11:44:32;10.30;2.50
47576;DHT22;33304;52.456;13.328;2023-04-25T11:46:59;10.30;2.50
47576;DHT22;33304;52.456;13.328;2023-04-25T11:49:31;10.30;2.50
47576;DHT22;33304;52.456;13.328;2023-04-25T11:51:58;10.30;1.50
47576;DHT22;33304;52.456;13.328;2023-04-25T11:54:25;10.40;1.70
47576;DHT22;33304;52.456;13.328;2023-04-25T11:56:53;10.50;2.00
47576;DHT22;33304;52.456;13.328;2023-04-25T11:59:23;10.60;2.00
47576;DHT22;33304;52.456;13.328;2023-04-25T12:01:51;10.50;2.70
47576;DHT22;33304;52.456;13.328;2023-04-25T12:04:20;10.50;2.70
47576;DHT22;33304;52.456;13.328;2023-04-25T12:06:50;10.50;2.70
47576;DHT22;33304;52.456;13.328;2023-04-25T12:09:19;10.50;2.70
47576;DHT22;33304;52.456;13.328;2023-04-25T12:11:48;10.70;2.80
47576;DHT22;33304;52.456;13.328;2023-04-25T12:14:22;10.60;2.80
47576;DHT22;33304;52.456;13.328;2023-04-25T12:16:50;10.60;2.70
47576;DHT22;33304;52.456;13.328;2023-04-25T12:19:19;10.80;2.90
47576;DHT22;33304;52.456;13.328;2023-04-25T12:21:47;10.80;2.90
47576;DHT22;33304;52.456;13.328;2023-04-25T12:24:16;10.90;2.90
47576;DHT22;33304;52.456;13.328;2023-04-25T12:26:52;11.10;3.10
47576;DHT22;33304;52.456;13.328;2023-04-25T12:29:20;11.20;3.20
47576;DHT22;33304;52.456;13.328;2023-04-25T12:31:48;11.30;1.40
47576;DHT22;33304;52.456;13.328;2023-04-25T12:34:16;11.50;1.40
47576;DHT22;33304;52.456;13.328;2023-04-25T12:36:43;11.70;1.00
47576;DHT22;33304;52.456;13.328;2023-04-25T12:39:15;11.90;1.00
47576;DHT22;33304;52.456;13.328;2023-04-25T12:41:43;11.70;1.00
47576;DHT22;33304;52.456;13.328;2023-04-25T12:44:11;11.50;1.00
47576;DHT22;33304;52.456;13.328;2023-04-25T12:46:39;11.60;2.00
47576;DHT22;33304;52.456;13.328;2023-04-25T12:49:07;11.70;3.50
47576;DHT22;33304;52.456;13.328;2023-04-25T12:51:35;11.30;1.70
47576;DHT22;33304;52.456;13.328;2023-04-25T12:54:02;11.10;2.10
47576;DHT22;33304;52.456;13.328;2023-04-25T12:56:31;10.90;2.90
47576;DHT22;33304;52.456;13.328;2023-04-25T12:58:58;11.00;2.10
47576;DHT22;33304;52.456;13.328;2023-04-25T13:01:25;10.90;2.90
47576;DHT22;33304;52.456;13.328;2023-04-25T13:03:53;10.80;2.80
47576;DHT22;33304;52.456;13.328;2023-04-25T13:06:21;10.70;2.80
47576;DHT22;33304;52.456;13.328;2023-04-25T13:08:49;10.70;2.50
47576;DHT22;33304;52.456;13.328;2023-04-25T13:11:16;10.50;1.00
47576;DHT22;33304;52.456;13.328;2023-04-25T13:13:44;10.50;1.00
47576;DHT22;33304;52.456;13.328;2023-04-25T13:16:11;10.50;3.90
47576;DHT22;33304;52.456;13.328;2023-04-25T13:18:40;11.20;1.00
47576;DHT22;33304;52.456;13.328;2023-04-25T13:21:09;12.00;1.00
47576;DHT22;33304;52.456;13.328;2023-04-25T13:23:36;12.70;1.00
47576;DHT22;33304;52.456;13.328;2023-04-25T13:26:03;12.60;1.00
47576;DHT22;33304;52.456;13.328;2023-04-25T13:28:31;12.70;1.00
47576;DHT22;33304;52.456;13.328;2023-04-25T13:30:59;12.30;1.00
47576;DHT22;33304;52.456;13.328;2023-04-25T13:33:26;12.00;1.00
47576;DHT22;33304;52.456;13.328;2023-04-25T13:35:54;11.90;1.00
47576;DHT22;33304;52.456;13.328;2023-04-25T13:38:23;12.10;1.00
47576;DHT22;33304;52.456;13.328;2023-04-25T13:40:51;11.70;1.00
47576;DHT22;33304;52.456;13.328;2023-04-25T13:43:19;11.60;1.00
47576;DHT22;33304;52.456;13.328;2023-04-25T13:45:47;11.50;1.00
47576;DHT22;33304;52.456;13.328;2023-04-25T13:48:16;11.30;1.00
47576;DHT22;33304;52.456;13.328;2023-04-25T13:50:43;11.70;1.20
47576;DHT22;33304;52.456;13.328;2023-04-25T13:53:10;11.60;1.00
47576;DHT22;33304;52.456;13.328;2023-04-25T13:55:38;11.20;1.30
47576;DHT22;33304;52.456;13.328;2023-04-25T13:58:05;11.30;2.10
47576;DHT22;33304;52.456;13.328;2023-04-25T14:00:36;11.30;2.10
47576;DHT22;33304;52.456;13.328;2023-04-25T14:03:04;11.30;3.20
47576;DHT22;33304;52.456;13.328;2023-04-25T14:05:35;11.00;3.00
47576;DHT22;33304;52.456;13.328;2023-04-25T14:08:05;10.70;2.80
47576;DHT22;33304;52.456;13.328;2023-04-25T14:10:34;10.60;2.80
47576;DHT22;33304;52.456;13.328;2023-04-25T14:13:02;10.70;2.80
47576;DHT22;33304;52.456;13.328;2023-04-25T14:15:30;10.70;2.80
47576;DHT22;33304;52.456;13.328;2023-04-25T14:17:57;10.50;2.70
47576;DHT22;33304;52.456;13.328;2023-04-25T14:20:25;10.40;4.20
47576;DHT22;33304;52.456;13.328;2023-04-25T14:22:53;10.30;3.80
47576;DHT22;33304;52.456;13.328;2023-04-25T14:25:22;10.20;3.00
47576;DHT22;33304;52.456;13.328;2023-04-25T14:27:49;10.00;4.30
47576;DHT22;33304;52.456;13.328;2023-04-25T14:30:16;10.00;3.40
47576;DHT22;33304;52.456;13.328;2023-04-25T14:32:44;9.90;4.10
47576;DHT22;33304;52.456;13.328;2023-04-25T14:35:12;9.90;4.40
47576;DHT22;33304;52.456;13.328;2023-04-25T14:37:39;10.10;4.00
47576;DHT22;33304;52.456;13.328;2023-04-25T14:40:08;10.30;4.60
47576;DHT22;33304;52.456;13.328;2023-04-25T14:42:36;10.40;3.20
47576;DHT22;33304;52.456;13.328;2023-04-25T14:45:04;10.60;4.30
47576;DHT22;33304;52.456;13.328;2023-04-25T14:47:32;10.90;4.70
47576;DHT22;33304;52.456;13.328;2023-04-25T14:49:59;11.10;3.10
47576;DHT22;33304;52.456;13.328;2023-04-25T14:52:27;11.40;3.00
47576;DHT22;33304;52.456;13.328;2023-04-25T14:54:54;11.80;2.20
47576;DHT22;33304;52.456;13.328;2023-04-25T14:57:22;11.90;1.00
47576;DHT22;33304;52.456;13.328;2023-04-25T14:59:50;11.70;1.50
47576;DHT22;33304;52.456;13.328;2023-04-25T15:02:17;11.60;1.80
47576;DHT22;33304;52.456;13.328;2023-04-25T15:04:44;11.20;3.20
47576;DHT22;33304;52.456;13.328;2023-04-25T15:07:11;10.90;2.90
47576;DHT22;33304;52.456;13.328;2023-04-25T15:09:38;10.90;4.00
47576;DHT22;33304;52.456;13.328;2023-04-25T15:12:06;10.60;3.70
47576;DHT22;33304;52.456;13.328;2023-04-25T15:14:34;10.60;5.10
47576;DHT22;33304;52.456;13.328;2023-04-25T15:17:01;10.40;5.10
47576;DHT22;33304;52.456;13.328;2023-04-25T15:19:28;10.30;5.40
47576;DHT22;33304;52.456;13.328;2023-04-25T15:21:56;10.30;5.60
47576;DHT22;33304;52.456;13.328;2023-04-25T15:24:26;10.40;6.00
47576;DHT22;33304;52.456;13.328;2023-04-25T15:26:53;10.60;5.80
47576;DHT22;33304;52.456;13.328;2023-04-25T15:29:20;10.80;5.10
47576;DHT22;33304;52.456;13.328;2023-04-25T15:31:48;11.10;4.50
47576;DHT22;33304;52.456;13.328;2023-04-25T15:34:16;11.50;3.40
47576;DHT22;33304;52.456;13.328;2023-04-25T15:36:43;11.60;3.50
47576;DHT22;33304;52.456;13.328;2023-04-25T15:39:10;11.80;3.60
47576;DHT22;33304;52.456;13.328;2023-04-25T15:41:37;11.70;3.50
47576;DHT22;33304;52.456;13.328;2023-04-25T15:44:04;11.60;3.50
47576;DHT22;33304;52.456;13.328;2023-04-25T15:46:32;11.60;3.40
47576;DHT22;33304;52.456;13.328;2023-04-25T15:49:01;11.30;3.20
47576;DHT22;33304;52.456;13.328;2023-04-25T15:51:28;11.00;3.00